sensor_id;sensor_type;location;lat;lon;timestamp;temperature;humidity
592;DHT22;283;53.608;10.046;2022-12-10T00:01:51;1.40;96.30
592;DHT22;283;53.608;10.046;2022-12-10T00:04:19;1.30;96.30
592;DHT22;283;53.608;10.046;2022-12-10T00:06:47;1.40;96.60
592;DHT22;283;53.608;10.046;2022-12-10T00:09:17;1.40;96.30
592;DHT22;283;53.608;10.046;2022-12-10T00:11:45;1.30;96.30
592;DHT22;283;53.608;10.046;2022-12-10T00:14:13;1.40;96.30
592;DHT22;283;53.608;10.046;2022-12-10T00:16:41;1.40;96.00
592;DHT22;283;53.608;10.046;2022-12-10T00:19:09;1.30;96.40
592;DHT22;283;53.608;10.046;2022-12-10T00:21:37;1.30;96.40
592;DHT22;283;53.608;10.046;2022-12-10T00:24:04;1.40;96.00
592;DHT22;283;53.608;10.046;2022-12-10T00:26:34;1.50;95.90
592;DHT22;283;53.608;10.046;2022-12-10T00:29:03;1.50;95.80
592;DHT22;283;53.608;10.046;2022-12-10T00:31:33;1.80;96.00
592;DHT22;283;53.608;10.046;2022-12-10T00:34:01;1.60;96.00
592;DHT22;283;53.608;10.046;2022-12-10T00:36:31;1.30;96.30
592;DHT22;283;53.608;10.046;2022-12-10T00:38:59;1.30;96.00
592;DHT22;283;53.608;10.046;2022-12-10T00:41:27;1.40;95.80
592;DHT22;283;53.608;10.046;2022-12-10T00:43:56;1.40;95.90
592;DHT22;283;53.608;10.046;2022-12-10T00:46:24;1.50;95.60
592;DHT22;283;53.608;10.046;2022-12-10T00:48:52;1.70;95.60
592;DHT22;283;53.608;10.046;2022-12-10T00:51:20;1.30;95.70
592;DHT22;283;53.608;10.046;2022-12-10T00:53:48;1.50;95.70
592;DHT22;283;53.608;10.046;2022-12-10T00:56:18;1.60;95.40
592;DHT22;283;53.608;10.046;2022-12-10T00:58:46;1.50;95.30
592;DHT22;283;53.608;10.046;2022-12-10T01:01:17;1.60;95.20
592;DHT22;283;53.608;10.046;2022-12-10T01:03:46;1.50;95.00
592;DHT22;283;53.608;10.046;2022-12-10T01:06:15;1.60;95.30
592;DHT22;283;53.608;10.046;2022-12-10T01:08:43;1.40;95.20
592;DHT22;283;53.608;10.046;2022-12-10T01:11:13;1.40;95.10
592;DHT22;283;53.608;10.046;2022-12-10T01:13:41;1.60;95.60
592;DHT22;283;53.608;10.046;2022-12-10T01:16:09;1.30;95.70
592;DHT22;283;53.608;10.046;2022-12-10T01:18:39;1.30;95.60
592;DHT22;283;53.608;10.046;2022-12-10T01:21:08;1.40;95.80
592;DHT22;283;53.608;10.046;2022-12-10T01:23:36;1.40;95.60
592;DHT22;283;53.608;10.046;2022-12-10T01:26:05;1.60;95.60
592;DHT22;283;53.608;10.046;2022-12-10T01:28:33;1.50;95.50
592;DHT22;283;53.608;10.046;2022-12-10T01:31:02;1.50;95.20
592;DHT22;283;53.608;10.046;2022-12-10T01:33:30;1.60;95.20
592;DHT22;283;53.608;10.046;2022-12-10T01:36:02;1.50;95.30
592;DHT22;283;53.608;10.046;2022-12-10T01:38:29;1.40;95.40
592;DHT22;283;53.608;10.046;2022-12-10T01:40:57;1.40;95.70
592;DHT22;283;53.608;10.046;2022-12-10T01:43:25;1.50;95.40
592;DHT22;283;53.608;10.046;2022-12-10T01:45:52;1.40;95.40
592;DHT22;283;53.608;10.046;2022-12-10T01:48:20;1.40;95.30
592;DHT22;283;53.608;10.046;2022-12-10T01:50:48;1.40;95.30
592;DHT22;283;53.608;10.046;2022-12-10T01:53:17;1.40;95.10
592;DHT22;283;53.608;10.046;2022-12-10T01:55:46;1.40;95.20
592;DHT22;283;53.608;10.046;2022-12-10T01:58:16;1.30;95.30
592;DHT22;283;53.608;10.046;2022-12-10T02:00:46;1.30;95.40
592;DHT22;283;53.608;10.046;2022-12-10T02:03:18;1.30;95.30
592;DHT22;283;53.608;10.046;2022-12-10T02:05:48;1.30;95.50
592;DHT22;283;53.608;10.046;2022-12-10T02:08:25;1.40;95.10
592;DHT22;283;53.608;10.046;2022-12-10T02:10:57;1.40;95.20
592;DHT22;283;53.608;10.046;2022-12-10T02:19:35;1.40;94.30
592;DHT22;283;53.608;10.046;2022-12-10T02:22:07;1.40;94.50
592;DHT22;283;53.608;10.046;2022-12-10T02:24:36;1.40;94.50
592;DHT22;283;53.608;10.046;2022-12-10T02:27:06;1.40;94.60
592;DHT22;283;53.608;10.046;2022-12-10T02:29:38;1.30;94.20
592;DHT22;283;53.608;10.046;2022-12-10T02:32:08;1.30;94.60
592;DHT22;283;53.608;10.046;2022-12-10T02:34:37;1.40;94.20
592;DHT22;283;53.608;10.046;2022-12-10T02:37:07;1.60;94.00
592;DHT22;283;53.608;10.046;2022-12-10T02:39:36;1.30;93.60
592;DHT22;283;53.608;10.046;2022-12-10T02:42:06;1.30;94.10
592;DHT22;283;53.608;10.046;2022-12-10T02:44:34;1.40;94.30
592;DHT22;283;53.608;10.046;2022-12-10T02:47:04;1.30;94.00
592;DHT22;283;53.608;10.046;2022-12-10T02:49:32;1.30;93.90
592;DHT22;283;53.608;10.046;2022-12-10T02:52:06;1.50;94.00
592;DHT22;283;53.608;10.046;2022-12-10T02:54:35;1.30;94.10
592;DHT22;283;53.608;10.046;2022-12-10T02:57:06;1.40;94.00
592;DHT22;283;53.608;10.046;2022-12-10T02:59:37;1.30;93.50
592;DHT22;283;53.608;10.046;2022-12-10T03:02:11;1.50;93.90
592;DHT22;283;53.608;10.046;2022-12-10T03:04:43;1.70;93.60
592;DHT22;283;53.608;10.046;2022-12-10T03:07:14;1.40;93.70
592;DHT22;283;53.608;10.046;2022-12-10T03:09:45;1.40;93.60
592;DHT22;283;53.608;10.046;2022-12-10T03:12:15;1.30;93.70
592;DHT22;283;53.608;10.046;2022-12-10T03:14:44;1.40;93.60
592;DHT22;283;53.608;10.046;2022-12-10T03:17:14;1.40;93.30
592;DHT22;283;53.608;10.046;2022-12-10T03:19:43;1.40;93.50
592;DHT22;283;53.608;10.046;2022-12-10T03:22:12;1.20;92.80
592;DHT22;283;53.608;10.046;2022-12-10T03:24:40;1.20;92.80
592;DHT22;283;53.608;10.046;2022-12-10T03:27:10;1.20;93.00
592;DHT22;283;53.608;10.046;2022-12-10T03:29:39;1.30;92.90
592;DHT22;283;53.608;10.046;2022-12-10T03:32:11;1.50;93.00
592;DHT22;283;53.608;10.046;2022-12-10T03:34:42;1.40;92.60
592;DHT22;283;53.608;10.046;2022-12-10T03:37:10;1.40;92.40
592;DHT22;283;53.608;10.046;2022-12-10T03:39:38;1.30;92.10
592;DHT22;283;53.608;10.046;2022-12-10T03:42:06;1.20;92.40
592;DHT22;283;53.608;10.046;2022-12-10T03:44:35;1.50;92.20
592;DHT22;283;53.608;10.046;2022-12-10T03:47:03;1.50;91.90
592;DHT22;283;53.608;10.046;2022-12-10T03:49:31;1.60;92.10
592;DHT22;283;53.608;10.046;2022-12-10T03:52:01;1.60;92.10
592;DHT22;283;53.608;10.046;2022-12-10T03:54:28;1.50;92.10
592;DHT22;283;53.608;10.046;2022-12-10T03:56:56;1.50;92.00
592;DHT22;283;53.608;10.046;2022-12-10T03:59:24;1.60;91.90
592;DHT22;283;53.608;10.046;2022-12-10T04:01:52;1.50;92.10
592;DHT22;283;53.608;10.046;2022-12-10T04:04:20;1.60;92.00
592;DHT22;283;53.608;10.046;2022-12-10T04:06:48;1.60;91.80
592;DHT22;283;53.608;10.046;2022-12-10T04:09:17;1.60;91.40
592;DHT22;283;53.608;10.046;2022-12-10T04:11:44;1.50;91.80
592;DHT22;283;53.608;10.046;2022-12-10T04:14:12;1.50;91.50
592;DHT22;283;53.608;10.046;2022-12-10T04:16:58;1.60;91.90
592;DHT22;283;53.608;10.046;2022-12-10T04:19:25;1.80;91.70
592;DHT22;283;53.608;10.046;2022-12-10T04:21:53;1.80;91.60
592;DHT22;283;53.608;10.046;2022-12-10T04:24:40;1.50;91.80
592;DHT22;283;53.608;10.046;2022-12-10T04:27:26;1.50;92.10
592;DHT22;283;53.608;10.046;2022-12-10T04:29:55;1.40;91.90
592;DHT22;283;53.608;10.046;2022-12-10T04:32:23;1.40;92.10
592;DHT22;283;53.608;10.046;2022-12-10T04:34:51;1.50;92.10
592;DHT22;283;53.608;10.046;2022-12-10T04:37:19;1.60;91.40
592;DHT22;283;53.608;10.046;2022-12-10T04:39:48;1.70;91.90
592;DHT22;283;53.608;10.046;2022-12-10T04:42:16;1.60;91.80
592;DHT22;283;53.608;10.046;2022-12-10T04:44:44;1.40;91.20
592;DHT22;283;53.608;10.046;2022-12-10T04:47:12;1.50;91.70
592;DHT22;283;53.608;10.046;2022-12-10T04:49:40;1.50;91.90
592;DHT22;283;53.608;10.046;2022-12-10T04:52:10;1.80;91.40
592;DHT22;283;53.608;10.046;2022-12-10T04:54:38;1.50;91.90
592;DHT22;283;53.608;10.046;2022-12-10T04:57:07;1.60;91.80
592;DHT22;283;53.608;10.046;2022-12-10T04:59:35;1.20;91.80
592;DHT22;283;53.608;10.046;2022-12-10T05:02:03;1.40;91.60
592;DHT22;283;53.608;10.046;2022-12-10T05:04:31;1.20;91.40
592;DHT22;283;53.608;10.046;2022-12-10T05:06:59;1.20;92.00
592;DHT22;283;53.608;10.046;2022-12-10T05:09:29;1.20;91.80
592;DHT22;283;53.608;10.046;2022-12-10T05:11:57;1.30;92.20
592;DHT22;283;53.608;10.046;2022-12-10T05:14:26;1.30;91.50
592;DHT22;283;53.608;10.046;2022-12-10T05:16:54;1.50;91.80
592;DHT22;283;53.608;10.046;2022-12-10T05:19:22;1.30;91.40
592;DHT22;283;53.608;10.046;2022-12-10T05:21:49;1.50;91.80
592;DHT22;283;53.608;10.046;2022-12-10T05:24:35;1.30;91.90
592;DHT22;283;53.608;10.046;2022-12-10T05:27:03;1.20;92.00
592;DHT22;283;53.608;10.046;2022-12-10T05:29:32;1.40;91.90
592;DHT22;283;53.608;10.046;2022-12-10T05:32:00;1.30;92.20
592;DHT22;283;53.608;10.046;2022-12-10T05:34:28;1.60;91.40
592;DHT22;283;53.608;10.046;2022-12-10T05:36:56;1.50;91.80
592;DHT22;283;53.608;10.046;2022-12-10T05:39:24;1.10;91.70
592;DHT22;283;53.608;10.046;2022-12-10T05:41:51;1.50;91.80
592;DHT22;283;53.608;10.046;2022-12-10T05:44:19;1.40;91.70
592;DHT22;283;53.608;10.046;2022-12-10T05:46:48;1.30;91.80
592;DHT22;283;53.608;10.046;2022-12-10T05:49:16;1.30;91.90
592;DHT22;283;53.608;10.046;2022-12-10T05:51:43;1.40;91.60
592;DHT22;283;53.608;10.046;2022-12-10T05:54:11;1.40;91.50
592;DHT22;283;53.608;10.046;2022-12-10T05:56:39;1.10;91.80
592;DHT22;283;53.608;10.046;2022-12-10T05:59:06;1.20;92.00
592;DHT22;283;53.608;10.046;2022-12-10T06:01:42;0.90;92.10
592;DHT22;283;53.608;10.046;2022-12-10T06:04:11;0.70;92.90
592;DHT22;283;53.608;10.046;2022-12-10T06:06:39;0.70;92.90
592;DHT22;283;53.608;10.046;2022-12-10T06:09:09;0.70;92.70
592;DHT22;283;53.608;10.046;2022-12-10T06:11:38;0.70;93.20
592;DHT22;283;53.608;10.046;2022-12-10T06:14:08;0.70;93.10
592;DHT22;283;53.608;10.046;2022-12-10T06:16:36;0.50;93.50
592;DHT22;283;53.608;10.046;2022-12-10T06:19:03;0.50;93.60
592;DHT22;283;53.608;10.046;2022-12-10T06:21:32;0.50;93.20
592;DHT22;283;53.608;10.046;2022-12-10T06:24:09;0.40;93.80
592;DHT22;283;53.608;10.046;2022-12-10T06:26:37;0.40;94.00
592;DHT22;283;53.608;10.046;2022-12-10T06:29:05;0.40;93.70
592;DHT22;283;53.608;10.046;2022-12-10T06:31:32;0.60;93.50
592;DHT22;283;53.608;10.046;2022-12-10T06:34:01;0.30;93.90
592;DHT22;283;53.608;10.046;2022-12-10T06:36:28;0.40;93.80
592;DHT22;283;53.608;10.046;2022-12-10T06:39:00;0.30;93.50
592;DHT22;283;53.608;10.046;2022-12-10T06:41:31;0.30;93.80
592;DHT22;283;53.608;10.046;2022-12-10T06:46:39;0.40;94.70
592;DHT22;283;53.608;10.046;2022-12-10T06:49:07;0.30;94.10
592;DHT22;283;53.608;10.046;2022-12-10T06:51:35;0.30;94.30
592;DHT22;283;53.608;10.046;2022-12-10T06:54:06;0.20;94.30
592;DHT22;283;53.608;10.046;2022-12-10T06:56:33;0.30;94.50
592;DHT22;283;53.608;10.046;2022-12-10T06:59:03;0.20;94.00
592;DHT22;283;53.608;10.046;2022-12-10T07:01:32;0.20;94.60
592;DHT22;283;53.608;10.046;2022-12-10T07:04:00;0.30;94.90
592;DHT22;283;53.608;10.046;2022-12-10T07:06:28;0.10;94.20
592;DHT22;283;53.608;10.046;2022-12-10T07:08:58;0.20;94.40
592;DHT22;283;53.608;10.046;2022-12-10T07:11:31;-0.10;94.30
592;DHT22;283;53.608;10.046;2022-12-10T07:13:59;0.20;94.90
592;DHT22;283;53.608;10.046;2022-12-10T07:16:28;0.20;95.00
592;DHT22;283;53.608;10.046;2022-12-10T07:18:56;0.50;94.90
592;DHT22;283;53.608;10.046;2022-12-10T07:21:26;0.50;95.20
592;DHT22;283;53.608;10.046;2022-12-10T07:23:54;0.20;94.70
592;DHT22;283;53.608;10.046;2022-12-10T07:26:24;0.30;94.50
592;DHT22;283;53.608;10.046;2022-12-10T07:28:53;0.30;94.30
592;DHT22;283;53.608;10.046;2022-12-10T07:31:22;0.20;94.00
592;DHT22;283;53.608;10.046;2022-12-10T07:37:19;0.30;93.90
592;DHT22;283;53.608;10.046;2022-12-10T07:39:46;0.40;93.70
592;DHT22;283;53.608;10.046;2022-12-10T07:42:14;0.50;93.70
592;DHT22;283;53.608;10.046;2022-12-10T07:44:43;0.70;93.50
592;DHT22;283;53.608;10.046;2022-12-10T07:47:15;0.50;93.30
592;DHT22;283;53.608;10.046;2022-12-10T07:49:42;0.60;93.60
592;DHT22;283;53.608;10.046;2022-12-10T07:52:10;0.70;93.40
592;DHT22;283;53.608;10.046;2022-12-10T07:54:38;0.70;93.00
592;DHT22;283;53.608;10.046;2022-12-10T07:57:06;0.70;93.10
592;DHT22;283;53.608;10.046;2022-12-10T07:59:34;0.40;93.00
592;DHT22;283;53.608;10.046;2022-12-10T08:02:03;0.30;93.30
592;DHT22;283;53.608;10.046;2022-12-10T08:04:34;0.40;93.10
592;DHT22;283;53.608;10.046;2022-12-10T08:07:02;0.50;93.50
592;DHT22;283;53.608;10.046;2022-12-10T08:09:29;0.40;92.90
592;DHT22;283;53.608;10.046;2022-12-10T08:11:57;0.60;93.50
592;DHT22;283;53.608;10.046;2022-12-10T08:14:25;0.60;93.30
592;DHT22;283;53.608;10.046;2022-12-10T08:16:53;0.70;92.60
592;DHT22;283;53.608;10.046;2022-12-10T08:19:22;0.90;93.00
592;DHT22;283;53.608;10.046;2022-12-10T08:21:57;0.70;92.70
592;DHT22;283;53.608;10.046;2022-12-10T08:24:25;0.70;92.50
592;DHT22;283;53.608;10.046;2022-12-10T08:26:52;0.50;92.70
592;DHT22;283;53.608;10.046;2022-12-10T08:29:20;0.60;92.50
592;DHT22;283;53.608;10.046;2022-12-10T08:31:48;0.60;92.40
592;DHT22;283;53.608;10.046;2022-12-10T08:34:18;0.60;92.10
592;DHT22;283;53.608;10.046;2022-12-10T08:36:47;0.80;91.80
592;DHT22;283;53.608;10.046;2022-12-10T08:39:14;0.90;91.80
592;DHT22;283;53.608;10.046;2022-12-10T08:41:43;0.70;91.90
592;DHT22;283;53.608;10.046;2022-12-10T08:44:11;0.90;92.40
592;DHT22;283;53.608;10.046;2022-12-10T08:46:39;0.70;92.20
592;DHT22;283;53.608;10.046;2022-12-10T08:49:07;0.70;92.50
592;DHT22;283;53.608;10.046;2022-12-10T08:51:35;0.50;92.90
592;DHT22;283;53.608;10.046;2022-12-10T08:54:04;0.50;92.90
592;DHT22;283;53.608;10.046;2022-12-10T08:56:32;0.60;93.20
592;DHT22;283;53.608;10.046;2022-12-10T08:59:00;0.60;92.90
592;DHT22;283;53.608;10.046;2022-12-10T09:01:27;0.60;92.80
592;DHT22;283;53.608;10.046;2022-12-10T09:03:56;0.90;92.80
592;DHT22;283;53.608;10.046;2022-12-10T09:06:24;0.80;92.60
592;DHT22;283;53.608;10.046;2022-12-10T09:08:51;0.80;93.30
592;DHT22;283;53.608;10.046;2022-12-10T09:11:21;1.00;93.70
592;DHT22;283;53.608;10.046;2022-12-10T09:13:52;0.90;93.90
592;DHT22;283;53.608;10.046;2022-12-10T09:16:20;0.80;93.10
592;DHT22;283;53.608;10.046;2022-12-10T09:18:47;0.80;93.60
592;DHT22;283;53.608;10.046;2022-12-10T09:21:16;1.00;92.90
592;DHT22;283;53.608;10.046;2022-12-10T09:23:45;0.80;92.20
592;DHT22;283;53.608;10.046;2022-12-10T09:26:13;0.90;92.70
592;DHT22;283;53.608;10.046;2022-12-10T09:28:43;0.80;92.30
592;DHT22;283;53.608;10.046;2022-12-10T09:31:11;0.90;92.50
592;DHT22;283;53.608;10.046;2022-12-10T09:33:46;0.80;91.50
592;DHT22;283;53.608;10.046;2022-12-10T09:36:18;0.80;91.30
592;DHT22;283;53.608;10.046;2022-12-10T09:38:46;0.80;91.60
592;DHT22;283;53.608;10.046;2022-12-10T09:41:19;0.90;91.10
592;DHT22;283;53.608;10.046;2022-12-10T09:43:52;0.70;90.80
592;DHT22;283;53.608;10.046;2022-12-10T09:46:23;0.70;91.20
592;DHT22;283;53.608;10.046;2022-12-10T09:48:57;0.80;91.40
592;DHT22;283;53.608;10.046;2022-12-10T09:51:26;0.90;91.40
592;DHT22;283;53.608;10.046;2022-12-10T09:53:55;1.10;91.10
592;DHT22;283;53.608;10.046;2022-12-10T09:56:26;1.20;90.10
592;DHT22;283;53.608;10.046;2022-12-10T09:58:55;1.10;89.80
592;DHT22;283;53.608;10.046;2022-12-10T10:01:24;1.30;90.50
592;DHT22;283;53.608;10.046;2022-12-10T10:03:54;1.00;90.80
592;DHT22;283;53.608;10.046;2022-12-10T10:06:23;1.00;90.50
592;DHT22;283;53.608;10.046;2022-12-10T10:08:51;1.10;90.70
592;DHT22;283;53.608;10.046;2022-12-10T10:11:21;0.90;90.50
592;DHT22;283;53.608;10.046;2022-12-10T10:13:51;0.90;90.40
592;DHT22;283;53.608;10.046;2022-12-10T10:16:23;0.70;90.70
592;DHT22;283;53.608;10.046;2022-12-10T10:18:53;0.70;90.60
592;DHT22;283;53.608;10.046;2022-12-10T10:21:22;0.90;90.50
592;DHT22;283;53.608;10.046;2022-12-10T10:23:51;0.90;90.10
592;DHT22;283;53.608;10.046;2022-12-10T10:26:20;0.80;90.00
592;DHT22;283;53.608;10.046;2022-12-10T10:28:48;0.90;90.30
592;DHT22;283;53.608;10.046;2022-12-10T10:31:18;1.10;90.00
592;DHT22;283;53.608;10.046;2022-12-10T10:33:51;1.00;90.00
592;DHT22;283;53.608;10.046;2022-12-10T10:36:23;1.00;90.30
592;DHT22;283;53.608;10.046;2022-12-10T10:38:51;1.10;90.10
592;DHT22;283;53.608;10.046;2022-12-10T10:41:19;1.10;89.90
592;DHT22;283;53.608;10.046;2022-12-10T10:43:47;1.00;90.10
592;DHT22;283;53.608;10.046;2022-12-10T10:46:21;1.00;90.10
592;DHT22;283;53.608;10.046;2022-12-10T10:48:51;1.10;89.80
592;DHT22;283;53.608;10.046;2022-12-10T10:51:19;1.10;89.30
592;DHT22;283;53.608;10.046;2022-12-10T10:53:50;1.10;89.10
592;DHT22;283;53.608;10.046;2022-12-10T10:56:18;1.10;88.40
592;DHT22;283;53.608;10.046;2022-12-10T10:58:49;1.20;88.90
592;DHT22;283;53.608;10.046;2022-12-10T11:01:17;1.30;88.70
592;DHT22;283;53.608;10.046;2022-12-10T11:03:47;1.40;89.00
592;DHT22;283;53.608;10.046;2022-12-10T11:06:16;1.40;88.00
592;DHT22;283;53.608;10.046;2022-12-10T11:08:44;1.40;88.10
592;DHT22;283;53.608;10.046;2022-12-10T11:11:13;1.40;87.60
592;DHT22;283;53.608;10.046;2022-12-10T11:13:44;1.30;87.10
592;DHT22;283;53.608;10.046;2022-12-10T11:16:15;1.20;87.40
592;DHT22;283;53.608;10.046;2022-12-10T11:18:51;1.40;87.30
592;DHT22;283;53.608;10.046;2022-12-10T11:21:20;1.40;86.50
592;DHT22;283;53.608;10.046;2022-12-10T11:23:49;1.20;87.20
592;DHT22;283;53.608;10.046;2022-12-10T11:26:25;1.10;86.90
592;DHT22;283;53.608;10.046;2022-12-10T11:28:59;1.10;85.50
592;DHT22;283;53.608;10.046;2022-12-10T11:31:32;1.30;86.60
592;DHT22;283;53.608;10.046;2022-12-10T11:34:07;1.40;86.30
592;DHT22;283;53.608;10.046;2022-12-10T11:36:38;1.30;86.90
592;DHT22;283;53.608;10.046;2022-12-10T11:39:10;1.30;86.70
592;DHT22;283;53.608;10.046;2022-12-10T11:41:46;1.40;86.40
592;DHT22;283;53.608;10.046;2022-12-10T11:44:17;1.30;87.40
592;DHT22;283;53.608;10.046;2022-12-10T11:46:55;1.30;88.40
592;DHT22;283;53.608;10.046;2022-12-10T11:49:26;1.20;88.50
592;DHT22;283;53.608;10.046;2022-12-10T11:52:00;1.30;88.00
592;DHT22;283;53.608;10.046;2022-12-10T11:54:36;1.30;88.20
592;DHT22;283;53.608;10.046;2022-12-10T11:57:08;1.10;87.80
592;DHT22;283;53.608;10.046;2022-12-10T11:59:41;1.20;87.50
592;DHT22;283;53.608;10.046;2022-12-10T12:02:36;1.10;88.10
592;DHT22;283;53.608;10.046;2022-12-10T12:05:14;0.90;88.70
592;DHT22;283;53.608;10.046;2022-12-10T12:07:49;1.10;89.00
592;DHT22;283;53.608;10.046;2022-12-10T12:10:22;1.10;86.60
592;DHT22;283;53.608;10.046;2022-12-10T12:13:02;1.20;87.00
592;DHT22;283;53.608;10.046;2022-12-10T12:15:32;1.30;86.80
592;DHT22;283;53.608;10.046;2022-12-10T12:18:02;1.30;86.80
592;DHT22;283;53.608;10.046;2022-12-10T12:20:31;1.30;87.20
592;DHT22;283;53.608;10.046;2022-12-10T12:23:02;1.40;86.40
592;DHT22;283;53.608;10.046;2022-12-10T12:25:31;1.50;87.40
592;DHT22;283;53.608;10.046;2022-12-10T12:28:03;1.40;86.80
592;DHT22;283;53.608;10.046;2022-12-10T12:30:32;1.50;87.40
592;DHT22;283;53.608;10.046;2022-12-10T12:33:02;1.50;86.50
592;DHT22;283;53.608;10.046;2022-12-10T12:35:33;1.60;87.10
592;DHT22;283;53.608;10.046;2022-12-10T12:38:06;1.50;87.40
592;DHT22;283;53.608;10.046;2022-12-10T12:40:39;1.40;88.10
592;DHT22;283;53.608;10.046;2022-12-10T12:43:11;1.40;87.70
592;DHT22;283;53.608;10.046;2022-12-10T12:45:41;1.20;87.50
592;DHT22;283;53.608;10.046;2022-12-10T12:48:14;1.30;87.90
592;DHT22;283;53.608;10.046;2022-12-10T12:50:43;1.30;87.60
592;DHT22;283;53.608;10.046;2022-12-10T12:53:13;1.30;87.50
592;DHT22;283;53.608;10.046;2022-12-10T12:55:46;1.30;87.10
592;DHT22;283;53.608;10.046;2022-12-10T12:58:16;1.30;86.70
592;DHT22;283;53.608;10.046;2022-12-10T13:00:45;1.40;87.00
592;DHT22;283;53.608;10.046;2022-12-10T13:03:24;1.40;87.10
592;DHT22;283;53.608;10.046;2022-12-10T13:05:54;1.30;87.10
592;DHT22;283;53.608;10.046;2022-12-10T13:08:25;1.30;87.10
592;DHT22;283;53.608;10.046;2022-12-10T13:10:57;1.20;87.90
592;DHT22;283;53.608;10.046;2022-12-10T13:13:28;1.10;87.60
592;DHT22;283;53.608;10.046;2022-12-10T13:15:56;1.20;87.90
592;DHT22;283;53.608;10.046;2022-12-10T13:18:44;1.20;88.00
592;DHT22;283;53.608;10.046;2022-12-10T13:21:28;1.10;87.50
592;DHT22;283;53.608;10.046;2022-12-10T13:24:08;0.90;87.50
592;DHT22;283;53.608;10.046;2022-12-10T13:26:36;0.90;87.20
592;DHT22;283;53.608;10.046;2022-12-10T13:29:12;1.00;86.50
592;DHT22;283;53.608;10.046;2022-12-10T13:31:40;1.00;86.40
592;DHT22;283;53.608;10.046;2022-12-10T13:34:22;1.20;86.60
592;DHT22;283;53.608;10.046;2022-12-10T13:37:04;1.20;86.50
592;DHT22;283;53.608;10.046;2022-12-10T13:39:34;1.30;86.40
592;DHT22;283;53.608;10.046;2022-12-10T13:45:24;1.50;86.60
592;DHT22;283;53.608;10.046;2022-12-10T13:47:54;1.40;85.10
592;DHT22;283;53.608;10.046;2022-12-10T13:50:24;1.30;84.90
592;DHT22;283;53.608;10.046;2022-12-10T13:53:00;1.30;85.10
592;DHT22;283;53.608;10.046;2022-12-10T13:55:32;1.30;85.40
592;DHT22;283;53.608;10.046;2022-12-10T13:58:08;1.40;85.20
592;DHT22;283;53.608;10.046;2022-12-10T14:00:40;1.10;85.50
592;DHT22;283;53.608;10.046;2022-12-10T14:03:23;0.90;86.40
592;DHT22;283;53.608;10.046;2022-12-10T14:06:01;1.00;86.60
592;DHT22;283;53.608;10.046;2022-12-10T14:08:32;1.10;86.10
592;DHT22;283;53.608;10.046;2022-12-10T14:11:02;1.10;86.10
592;DHT22;283;53.608;10.046;2022-12-10T14:13:33;1.40;87.10
592;DHT22;283;53.608;10.046;2022-12-10T14:16:04;1.00;86.40
592;DHT22;283;53.608;10.046;2022-12-10T14:18:32;1.00;86.30
592;DHT22;283;53.608;10.046;2022-12-10T14:21:02;1.10;85.90
592;DHT22;283;53.608;10.046;2022-12-10T14:23:31;1.10;86.30
592;DHT22;283;53.608;10.046;2022-12-10T14:26:14;1.20;86.00
592;DHT22;283;53.608;10.046;2022-12-10T14:28:43;1.00;86.00
592;DHT22;283;53.608;10.046;2022-12-10T14:31:12;0.80;86.50
592;DHT22;283;53.608;10.046;2022-12-10T14:33:41;0.80;86.80
592;DHT22;283;53.608;10.046;2022-12-10T14:36:12;0.90;87.10
592;DHT22;283;53.608;10.046;2022-12-10T14:38:41;0.80;87.30
592;DHT22;283;53.608;10.046;2022-12-10T14:41:09;0.70;86.70
592;DHT22;283;53.608;10.046;2022-12-10T14:43:39;0.80;86.70
592;DHT22;283;53.608;10.046;2022-12-10T14:46:12;0.90;85.80
592;DHT22;283;53.608;10.046;2022-12-10T14:48:40;0.90;85.80
592;DHT22;283;53.608;10.046;2022-12-10T14:51:12;1.00;86.00
592;DHT22;283;53.608;10.046;2022-12-10T14:53:40;1.10;86.50
592;DHT22;283;53.608;10.046;2022-12-10T14:56:08;1.20;85.80
592;DHT22;283;53.608;10.046;2022-12-10T14:58:43;1.20;85.90
592;DHT22;283;53.608;10.046;2022-12-10T15:01:14;1.30;86.00
592;DHT22;283;53.608;10.046;2022-12-10T15:03:44;0.90;86.00
592;DHT22;283;53.608;10.046;2022-12-10T15:06:14;0.70;87.70
592;DHT22;283;53.608;10.046;2022-12-10T15:08:43;0.50;88.60
592;DHT22;283;53.608;10.046;2022-12-10T15:11:13;0.50;88.90
592;DHT22;283;53.608;10.046;2022-12-10T15:13:44;0.60;89.40
592;DHT22;283;53.608;10.046;2022-12-10T15:16:16;0.50;88.50
592;DHT22;283;53.608;10.046;2022-12-10T15:18:44;0.40;88.30
592;DHT22;283;53.608;10.046;2022-12-10T15:21:13;0.40;89.10
592;DHT22;283;53.608;10.046;2022-12-10T15:23:44;0.40;89.80
592;DHT22;283;53.608;10.046;2022-12-10T15:26:17;0.40;89.70
592;DHT22;283;53.608;10.046;2022-12-10T15:28:46;0.30;89.90
592;DHT22;283;53.608;10.046;2022-12-10T15:31:18;0.50;90.00
592;DHT22;283;53.608;10.046;2022-12-10T15:33:47;0.50;89.80
592;DHT22;283;53.608;10.046;2022-12-10T15:36:16;0.60;89.50
592;DHT22;283;53.608;10.046;2022-12-10T15:38:45;0.60;89.50
592;DHT22;283;53.608;10.046;2022-12-10T15:41:23;0.50;89.30
592;DHT22;283;53.608;10.046;2022-12-10T15:43:53;0.60;89.10
592;DHT22;283;53.608;10.046;2022-12-10T15:46:24;0.70;88.70
592;DHT22;283;53.608;10.046;2022-12-10T15:48:51;0.80;88.80
592;DHT22;283;53.608;10.046;2022-12-10T15:51:19;0.70;88.00
592;DHT22;283;53.608;10.046;2022-12-10T15:53:46;0.60;88.90
592;DHT22;283;53.608;10.046;2022-12-10T15:56:14;0.60;88.20
592;DHT22;283;53.608;10.046;2022-12-10T15:58:42;0.60;88.90
592;DHT22;283;53.608;10.046;2022-12-10T16:01:11;0.50;88.10
592;DHT22;283;53.608;10.046;2022-12-10T16:03:39;0.60;88.70
592;DHT22;283;53.608;10.046;2022-12-10T16:06:08;0.80;88.70
592;DHT22;283;53.608;10.046;2022-12-10T16:08:38;0.80;88.10
592;DHT22;283;53.608;10.046;2022-12-10T16:11:16;0.60;88.00
592;DHT22;283;53.608;10.046;2022-12-10T16:13:45;0.60;88.30
592;DHT22;283;53.608;10.046;2022-12-10T16:16:16;0.50;88.00
592;DHT22;283;53.608;10.046;2022-12-10T16:18:44;0.50;88.90
592;DHT22;283;53.608;10.046;2022-12-10T16:21:12;0.60;88.00
592;DHT22;283;53.608;10.046;2022-12-10T16:23:40;0.80;87.40
592;DHT22;283;53.608;10.046;2022-12-10T16:26:10;0.80;87.70
592;DHT22;283;53.608;10.046;2022-12-10T16:28:39;0.70;87.50
592;DHT22;283;53.608;10.046;2022-12-10T16:31:08;0.70;87.30
592;DHT22;283;53.608;10.046;2022-12-10T16:33:38;0.80;87.50
592;DHT22;283;53.608;10.046;2022-12-10T16:36:06;0.90;86.90
592;DHT22;283;53.608;10.046;2022-12-10T16:38:33;1.00;87.30
592;DHT22;283;53.608;10.046;2022-12-10T16:41:01;0.90;86.00
592;DHT22;283;53.608;10.046;2022-12-10T16:43:29;0.80;87.10
592;DHT22;283;53.608;10.046;2022-12-10T16:45:58;0.80;86.70
592;DHT22;283;53.608;10.046;2022-12-10T16:48:26;0.70;86.90
592;DHT22;283;53.608;10.046;2022-12-10T16:50:56;0.70;86.60
592;DHT22;283;53.608;10.046;2022-12-10T16:53:31;0.70;87.10
592;DHT22;283;53.608;10.046;2022-12-10T16:56:02;0.60;87.40
592;DHT22;283;53.608;10.046;2022-12-10T16:58:31;0.60;87.50
592;DHT22;283;53.608;10.046;2022-12-10T17:00:59;0.70;87.00
592;DHT22;283;53.608;10.046;2022-12-10T17:03:29;0.60;87.20
592;DHT22;283;53.608;10.046;2022-12-10T17:05:59;0.50;87.10
592;DHT22;283;53.608;10.046;2022-12-10T17:08:28;0.50;88.10